Weather reports worldwide

Advertisment
Oberstdorf, Germany (10948): temperature & dewpoint: 06.11.2019 06:00:00 - 12.11.2019 06:00:00 (CET)Oberstdorf, Germany (10948): temperature 5cm & temperature -5cm: 06.11.2019 06:00:00 - 12.11.2019 06:00:00 (CET)Oberstdorf, Germany (10948): temperature -20cm & temperature -100cm: 06.11.2019 06:00:00 - 12.11.2019 06:00:00 (CET)Oberstdorf, Germany (10948): wind speed & gusts: 06.11.2019 06:00:00 - 12.11.2019 06:00:00 (CET)Oberstdorf, Germany (10948): wind direction: 06.11.2019 06:00:00 - 12.11.2019 06:00:00 (CET)Oberstdorf, Germany (10948): visibility: 06.11.2019 06:00:00 - 12.11.2019 06:00:00 (CET)Oberstdorf, Germany (10948): sunshine duration: 06.11.2019 06:00:00 - 12.11.2019 06:00:00 (CET)Oberstdorf, Germany (10948): precipitation: 06.11.2019 06:00:00 - 12.11.2019 06:00:00 (CET)
Date & Time tt [°C] td [°C] tt 5cm [°C] tt -5cm [°C] tt -20cm [°C] tt -100cm [°C] ff [km/h] ff [kn] fx [km/h] fx [kn] dd vv [km] sd [min] rr [mm]
12.11.2019 06:00:00 0,8 0,3 0,6 3,6 5,4 9,6 10 5 14 7 SSE 24 0 0,0
12.11.2019 05:00:00 0,8 0,3 0,3 3,7 5,4 9,6 5 3 12 6 S 12 0 0,5
12.11.2019 04:00:00 0,3 0,0 0,1 3,8 5,4 9,6 4 2 12 6 S 6 0 1,1
12.11.2019 03:00:00 0,3 0,1 0,1 3,8 5,4 9,6 3 2 14 7 SE 3,6 0 1,7
12.11.2019 02:00:00 0,9 0,3 0,1 3,9 5,4 9,6 9 5 16 9 S 11 0 1,4
12.11.2019 01:00:00 0,2 0,0 0,1 3,9 5,4 9,7 4 2 15 8 SSW 2,7 0 0,7
12.11.2019 00:00:00 1,3 0,1 1,2 3,9 5,4 9,7 5 3 8 4 NE 47 0 0,0
11.11.2019 23:00:00 0,4 -0,4 0,2 4,0 5,4 9,7 3 1 10 5 S 45 0 0,0
11.11.2019 22:00:00 0,5 -0,5 -0,1 4,0 5,4 9,7 7 4 10 6 S 49 0 0,0
11.11.2019 21:00:00 0,0 -0,8 -1,2 4,0 5,4 9,7 3 2 7 4 S 31 0 0,0
11.11.2019 20:00:00 1,4 -0,1 0,9 4,0 5,4 9,7 2 1 8 5 WSW 42 0 0,0
11.11.2019 19:00:00 1,8 0,4 1,6 3,9 5,4 9,8 0 0 5 3 N 45 0 0,0
11.11.2019 18:00:00 1,9 0,3 1,4 3,8 5,4 9,8 0 0 5 3 N 38 0 0,0
11.11.2019 17:00:00 1,5 -0,2 1,1 3,7 5,4 9,8 5 3 13 7 S 29 0 0,0
11.11.2019 16:00:00 4,2 -0,7 3,8 3,5 5,5 9,8 9 5 12 6 N 75 0 0,0
11.11.2019 15:00:00 5,1 -1,9 5,4 3,5 5,5 9,8 3 2 16 8 E 69 0 0,0
11.11.2019 14:00:00 5,1 -1,9 5,8 3,5 5,6 9,8 11 6 14 8 N 60 2 0,0
11.11.2019 13:00:00 5,8 -4,9 5,5 3,6 5,6 9,8 2 1 6 3 SW 74 44 0,0
11.11.2019 12:00:00 5,3 -3,6 4,3 3,6 5,7 9,9 2 1 6 4 WSW 52 60 0,0
11.11.2019 11:00:00 2,8 -2,9 3,2 3,7 5,7 9,9 3 2 5 3 SSE 53 56 0,0
11.11.2019 10:00:00 -1,0 -4,4 0,0 3,7 5,8 9,9 2 1 9 5 ESE 63 58 0,0
11.11.2019 09:00:00 -3,8 -4,8 -2,6 3,8 5,8 9,9 5 3 8 4 N 40 4 0,0
11.11.2019 08:00:00 -4,5 -5,5 -6,3 3,9 5,9 9,9 5 3 9 5 ENE 60 0 0,0
11.11.2019 07:00:00 -5,9 -6,9 -7,2 4,0 5,9 9,9 6 4 11 6 SSE 65 0 0,0
11.11.2019 06:00:00 -5,9 -6,7 -7,2 4,0 6,0 10,0 6 3 8 4 S 73 0 0,0
11.11.2019 05:00:00 -5,7 -6,5 -7,8 4,1 6,0 10,0 3 1 6 4 S 75 0 0,0
11.11.2019 04:00:00 -5,4 -6,2 -7,5 4,2 6,1 10,0 2 1 7 4 S 74 0 0,0
11.11.2019 03:00:00 -4,6 -5,0 -6,8 4,3 6,1 10,0 2 1 8 4 WSW 68 0 0,0
11.11.2019 02:00:00 -5,1 -5,8 -6,6 4,3 6,1 10,0 3 2 6 3 SSW 66 0 0,0
11.11.2019 01:00:00 -5,0 -5,7 -6,8 4,4 6,2 10,0 4 2 6 3 SSE 64 0 0,0
11.11.2019 00:00:00 -4,2 -4,2 -5,8 4,5 6,2 10,0 3 2 7 4 SSW 64 0 0,0
10.11.2019 23:00:00 -3,9 -3,9 -6,0 4,6 6,3 10,1 3 1 6 4 SSE 51 0 0,0
10.11.2019 22:00:00 -4,0 -5,3 -5,1 4,7 6,3 10,1 3 1 6 3 SSE 63 0 0,0
10.11.2019 21:00:00 -3,3 -4,2 -5,0 4,8 6,3 10,1 4 2 7 4 SSE 62 0 0,0
10.11.2019 20:00:00 -2,3 -3,0 -3,5 4,9 6,3 10,1 4 2 10 5 S 65 0 0,0
10.11.2019 19:00:00 -1,2 -2,5 -3,3 5,0 6,2 10,1 5 3 10 5 S 75 0 0,0
10.11.2019 18:00:00 -0,3 -2,2 -2,5 5,0 6,2 10,1 8 4 15 8 S 74 0 0,0
10.11.2019 17:00:00 2,2 -1,6 0,5 4,9 6,2 10,1 10 6 14 7 SSE 75 0 0,0
10.11.2019 16:00:00 3,1 -0,6 1,7 4,7 6,2 10,2 8 4 14 8 S 66 28 0,0
10.11.2019 15:00:00 7,4 -0,8 8,4 4,4 6,3 10,2 11 6 19 10 N 60 60 0,0
10.11.2019 14:00:00 7,4 -1,9 8,5 4,2 6,3 10,2 13 7 18 10 N 75 60 0,0
10.11.2019 13:00:00 7,0 -4,0 9,9 4,3 6,4 10,2 3 2 8 4 N 75 60 0,0
10.11.2019 12:00:00 5,5 -1,9 5,2 4,3 6,5 10,2 3 2 8 4 SSE 75 60 0,0
10.11.2019 11:00:00 2,8 -1,6 2,9 4,4 6,5 10,2 5 3 9 5 SSE 51 60 0,0
10.11.2019 10:00:00 0,3 -3,1 0,6 4,5 6,6 10,2 8 4 10 5 S 75 60 0,0
10.11.2019 09:00:00 -3,3 -3,6 -2,3 4,6 6,7 10,2 3 2 6 3 ESE 65 5 0,0
10.11.2019 08:00:00 -5,4 -6,1 -6,9 4,7 6,8 10,2 3 1 8 5 S 75 0 0,0
10.11.2019 07:00:00 -6,3 -7,2 -7,7 4,8 6,8 10,3 4 2 7 4 S 70 0 0,0
10.11.2019 06:00:00 -4,3 -4,5 -6,8 4,9 6,9 10,3 3 2 6 3 SSE 75 0 0,0
10.11.2019 05:00:00 -4,0 -4,1 -7,3 5,1 7,0 10,3 3 1 5 3 S 75 0 0,0
10.11.2019 04:00:00 -6,1 -7,5 -7,1 5,2 7,1 10,3 2 1 7 4 SSE 62 0 0,0
10.11.2019 03:00:00 -5,2 -6,2 -5,8 5,3 7,1 10,3 4 2 6 3 SSE 75 0 0,0
10.11.2019 02:00:00 -3,7 -3,7 -5,5 5,5 7,2 10,3 4 2 9 5 SE 75 0 0,0
10.11.2019 01:00:00 -2,9 -2,9 -5,2 5,6 7,3 10,3 2 1 7 4 SE 64 0 0,0
10.11.2019 00:00:00 -3,4 -3,7 -5,0 5,8 7,3 10,3 3 1 7 4 SSW 57 0 0,0
09.11.2019 23:00:00 -3,4 -4,0 -4,8 6,0 7,4 10,3 6 4 8 4 S 72 0 0,0
09.11.2019 22:00:00 -2,5 -2,8 -4,2 6,2 7,4 10,4 3 2 6 4 SSE 63 0 0,0
09.11.2019 21:00:00 -1,3 -1,3 -3,2 6,4 7,4 10,4 3 2 8 4 S 60 0 0,0
09.11.2019 20:00:00 -1,1 -1,2 -3,3 6,7 7,4 10,4 4 2 6 3 S 50 0 0,0
09.11.2019 19:00:00 -0,6 -1,3 -2,3 6,8 7,3 10,4 4 2 8 4 SSE 57 0 0,0
09.11.2019 18:00:00 0,4 -0,4 -1,2 6,8 7,3 10,4 5 3 6 4 S 75 0 0,0
09.11.2019 17:00:00 2,7 0,9 1,7 6,7 7,2 10,4 4 2 6 4 S 75 0 0,0
09.11.2019 16:00:00 4,2 2,0 4,0 6,5 7,2 10,4 4 2 9 5 SW 75 29 0,0
09.11.2019 15:00:00 5,8 -0,7 6,0 6,3 7,2 10,4 4 2 11 6 W 73 20 0,0
09.11.2019 14:00:00 5,1 0,2 6,4 6,1 7,1 10,4 4 2 6 4 S 75 0 0,0
09.11.2019 13:00:00 4,5 0,4 5,8 5,9 7,2 10,5 3 2 15 8 NNE 75 0 0,1
09.11.2019 12:00:00 4,2 1,7 5,6 5,8 7,2 10,5 8 5 11 6 S 75 0 0,0
09.11.2019 11:00:00 2,9 1,1 3,8 5,7 7,2 10,5 5 3 11 6 SSW 65 0 0,3
09.11.2019 10:00:00 2,8 1,4 3,4 5,7 7,3 10,5 9 5 15 8 NNE 14 0 0,2
09.11.2019 09:00:00 2,8 1,8 2,8 5,8 7,3 10,5 6 4 9 5 SSE 60 0 0,0
09.11.2019 08:00:00 2,2 1,5 2,0 5,8 7,3 10,5 6 4 9 5 S 50 0 0,0
09.11.2019 07:00:00 2,2 1,5 1,9 5,9 7,4 10,5 5 3 11 6 S 56 0 0,0
09.11.2019 06:00:00 2,3 1,6 2,1 5,9 7,4 10,5 8 4 10 5 S 52 0 0,0
09.11.2019 05:00:00 2,1 1,3 1,9 5,9 7,5 10,5 3 2 9 5 S 75 0 0,0
09.11.2019 04:00:00 2,5 1,5 2,2 6,0 7,5 10,5 8 4 11 6 SSE 67 0 0,0
09.11.2019 03:00:00 2,2 1,5 1,9 6,1 7,6 10,6 4 2 10 5 SW 53 0 0,0
09.11.2019 02:00:00 2,8 0,7 2,1 6,1 7,6 10,6 4 2 13 7 W 73 0 0,0
09.11.2019 01:00:00 2,3 1,8 2,2 6,2 7,6 10,6 6 3 10 5 SSE 50 0 0,0
09.11.2019 00:00:00 2,3 1,5 1,6 6,3 7,7 10,6 8 4 9 5 SE 49 0 0,0
08.11.2019 23:00:00 2,2 1,8 2,0 6,4 7,7 10,6 4 2 10 5 SSE 61 0 0,0
08.11.2019 22:00:00 2,0 1,6 1,5 6,6 7,8 10,6 4 2 14 8 NNE 62 0 0,0
08.11.2019 21:00:00 1,6 1,3 0,7 6,7 7,8 10,6 8 4 11 6 S 69 0 0,0
08.11.2019 20:00:00 2,3 1,8 1,8 6,7 7,8 10,6 4 2 8 5 SSW 63 0 0,0
08.11.2019 19:00:00 2,7 1,9 2,5 6,8 7,8 10,6 6 3 9 5 SSE 75 0 0,0
08.11.2019 18:00:00 2,7 1,7 2,4 6,9 7,8 10,7 3 2 11 6 SSW 75 0 0,0
08.11.2019 17:00:00 2,9 1,6 2,3 6,9 7,8 10,7 10 5 15 8 S 75 0 0,0
08.11.2019 16:00:00 3,4 1,6 3,3 6,9 7,8 10,7 7 4 16 9 SSE 55 0 0,6
08.11.2019 15:00:00 4,0 0,6 2,6 6,9 7,7 10,7 12 7 29 16 NW 26 0 0,2
08.11.2019 14:00:00 4,6 2,4 4,8 6,8 7,7 10,7 10 5 18 10 NNW 40 0 0,0
08.11.2019 13:00:00 4,9 2,9 5,5 6,7 7,8 10,7 4 2 8 4 NW 29 0 0,0
08.11.2019 12:00:00 4,7 2,7 4,9 6,7 7,8 10,7 2 1 9 5 NW 35 0 0,0
08.11.2019 11:00:00 4,4 3,4 4,5 6,6 7,8 10,7 2 1 8 5 NNW 19 0 0,0
08.11.2019 10:00:00 3,9 3,3 4,4 6,6 7,8 10,7 5 3 9 5 N 12 0 0,0
08.11.2019 09:00:00 3,7 3,2 4,2 6,6 7,8 10,8 5 3 8 4 NE 5 0 0,1
08.11.2019 08:00:00 3,5 3,2 3,7 6,6 7,8 10,8 3 1 4 2 WNW 1,8 0 0,1
08.11.2019 07:00:00 3,6 3,1 3,7 6,7 7,9 10,8 0 0 3 2 N 3,9 0 0,0
08.11.2019 06:00:00 3,7 3,0 3,7 6,7 7,9 10,8 2 1 4 2 SE 7 0 0,0
08.11.2019 05:00:00 3,7 2,8 3,7 6,7 7,9 10,8 2 1 4 2 E 19 0 0,0
08.11.2019 04:00:00 3,8 2,7 3,7 6,7 7,9 10,8 3 1 5 3 S 28 0 0,0
08.11.2019 03:00:00 3,9 2,7 3,6 6,7 8,0 10,8 3 2 6 4 NW 27 0 0,0
08.11.2019 02:00:00 3,6 3,3 3,7 6,8 8,0 10,8 3 2 5 3 SSW 27 0 0,2
08.11.2019 01:00:00 3,4 3,0 3,5 6,9 8,0 10,9 0 0 6 3 N 27 0 0,6
08.11.2019 00:00:00 3,4 2,7 3,4 6,9 8,0 10,9 3 1 6 4 SSW 19 0 0,0
07.11.2019 23:00:00 3,0 2,4 2,9 7,1 8,0 10,9 4 2 7 4 S 75 0 0,0
07.11.2019 22:00:00 2,9 2,4 2,1 7,2 8,0 10,9 4 2 7 4 SE - 0 0,0
07.11.2019 21:00:00 2,9 2,2 1,7 7,3 8,0 10,9 5 3 9 5 S 71 0 0,0
07.11.2019 20:00:00 3,3 2,5 2,2 7,3 7,9 10,9 3 2 10 5 S 75 0 0,0
07.11.2019 19:00:00 4,5 2,7 3,6 7,4 7,9 10,9 6 3 13 7 SSW 74 0 0,0
07.11.2019 18:00:00 4,0 2,4 3,4 7,3 7,8 10,9 5 3 9 5 SE 52 0 0,0
07.11.2019 17:00:00 5,6 3,2 4,6 7,2 7,7 11,0 3 2 11 6 S 75 0 0,0
07.11.2019 16:00:00 7,9 2,0 7,6 6,9 7,7 11,0 6 3 10 6 NNE 72 0 0,0
07.11.2019 15:00:00 8,5 0,7 9,0 6,6 7,7 11,0 3 2 12 7 S 75 16 0,0
07.11.2019 14:00:00 8,1 0,3 9,1 6,2 7,7 11,0 7 4 11 6 NNE 75 17 0,0
07.11.2019 13:00:00 9,1 1,3 11,5 5,9 7,7 11,0 5 3 11 6 WNW 68 28 0,0
07.11.2019 12:00:00 7,1 0,2 10,4 5,7 7,8 11,0 3 2 10 5 NW 75 46 0,0
07.11.2019 11:00:00 3,7 -0,2 4,9 5,8 7,9 11,0 6 3 10 5 SE 73 51 0,0
07.11.2019 10:00:00 2,9 -0,2 3,7 5,9 8,0 11,0 8 4 11 6 SSE 69 60 0,0
07.11.2019 09:00:00 -1,4 -1,8 0,1 6,0 8,1 11,0 0 0 6 3 N 50 10 0,0
07.11.2019 08:00:00 -2,0 -2,3 -4,2 6,2 8,2 11,0 3 1 6 4 SE 53 0 0,0
07.11.2019 07:00:00 -2,1 -2,1 -4,1 6,4 8,3 11,1 5 3 7 4 S 75 0 0,0
07.11.2019 06:00:00 -2,7 -3,0 -3,8 6,6 8,4 11,1 4 2 9 5 SW 0,5 0 0,0
07.11.2019 05:00:00 -1,3 -1,5 -2,2 6,8 8,5 11,1 8 4 10 5 SSE 75 0 0,0
07.11.2019 04:00:00 -1,6 -2,1 -2,4 7,0 8,5 11,1 2 1 8 4 WNW 0,2 0 0,0
07.11.2019 03:00:00 0,3 -0,2 -1,9 7,2 8,6 11,1 3 2 14 8 SSE 75 0 0,0
07.11.2019 02:00:00 0,5 -0,3 -0,5 7,5 8,6 11,1 9 5 14 8 S 75 0 0,0
07.11.2019 01:00:00 1,2 0,8 -0,2 7,6 8,6 11,1 5 3 14 7 SSE 14 0 0,0
07.11.2019 00:00:00 1,5 0,8 0,0 7,8 8,7 11,1 6 3 8 4 SSE 68 0 0,0
06.11.2019 23:00:00 3,1 2,9 2,1 7,8 8,7 11,2 3 2 8 4 SE 55 0 0,0
06.11.2019 22:00:00 4,0 3,6 3,8 7,9 8,6 11,2 2 1 11 6 SSW 68 0 0,0
06.11.2019 21:00:00 4,3 3,2 4,0 8,0 8,6 11,2 6 3 15 8 S 75 0 0,0
06.11.2019 20:00:00 4,8 3,8 4,5 8,0 8,6 11,2 8 4 12 6 SSE 75 0 0,0
06.11.2019 19:00:00 4,8 4,1 4,9 8,1 8,5 11,2 5 3 8 4 SSE 54 0 0,6
06.11.2019 18:00:00 5,0 4,5 5,0 8,0 8,5 11,2 6 4 12 7 SSW 62 0 0,3
06.11.2019 17:00:00 5,7 3,6 5,3 7,9 8,4 11,2 10 5 13 7 SE 75 0 0,0
06.11.2019 16:00:00 6,3 3,7 5,9 7,7 8,4 11,2 4 2 14 8 ESE 75 0 0,2
06.11.2019 15:00:00 6,6 3,0 7,8 7,4 8,4 11,2 8 5 16 9 SSE 75 2 0,0
06.11.2019 14:00:00 6,8 3,0 7,5 7,2 8,4 11,2 6 3 16 8 S 75 0 0,1
06.11.2019 13:00:00 6,6 3,2 8,1 7,0 8,4 11,3 13 7 16 9 SSE 75 0 0,0
06.11.2019 12:00:00 6,8 2,5 6,8 6,8 8,4 11,3 7 4 22 12 N 75 0 0,0
06.11.2019 11:00:00 6,3 2,9 5,7 6,7 8,5 11,3 11 6 19 10 NW 75 0 0,0
06.11.2019 10:00:00 5,4 4,0 5,4 6,7 8,6 11,3 3 2 8 4 S 41 0 0,1
06.11.2019 09:00:00 4,2 3,3 4,2 6,7 8,7 11,3 5 3 8 5 SSE 68 0 0,0
06.11.2019 08:00:00 2,7 2,5 2,8 6,8 8,8 11,3 3 2 7 4 NW 66 0 0,0
06.11.2019 07:00:00 2,0 1,9 2,1 6,9 8,8 11,3 3 1 7 4 N 69 0 0,0
06.11.2019 06:00:00 0,7 0,3 0,6 7,1 8,9 11,3 4 2 6 3 SSE 67 0 0,0

tt = temperature
td = dewpoint
tt 5cm = temperature 5cm
tt -5cm = temperature -5cm
tt -20cm = temperature -20cm
tt -100cm = temperature -100cm
ff = wind speed
fx = gusts
dd = wind direction
vv = visibility
sd = sunshine duration
rr = precipitation

Next stations